createdAt,value
2023-03-27T00:00:34.122Z,1.18
2023-03-27T00:03:00.554Z,1.18
2023-03-27T00:05:27.081Z,1.20
2023-03-27T00:07:54.468Z,1.19
2023-03-27T00:10:22.137Z,1.19
2023-03-27T00:12:49.016Z,1.08
2023-03-27T00:15:16.062Z,1.04
2023-03-27T00:17:50.828Z,1.06
2023-03-27T00:20:18.198Z,0.98
2023-03-27T00:22:44.506Z,0.86
2023-03-27T00:25:11.300Z,0.84
2023-03-27T00:27:37.756Z,0.79
2023-03-27T00:30:06.357Z,0.65
2023-03-27T00:32:33.367Z,0.81
2023-03-27T00:34:59.781Z,0.79
2023-03-27T00:37:26.900Z,0.70
2023-03-27T00:39:53.216Z,0.63
2023-03-27T00:42:22.743Z,0.73
2023-03-27T00:44:50.725Z,0.63
2023-03-27T00:47:21.280Z,0.75
2023-03-27T00:49:49.393Z,0.75
2023-03-27T00:52:16.360Z,0.75
2023-03-27T00:54:44.277Z,0.70
2023-03-27T00:57:15.060Z,0.75
2023-03-27T00:59:43.821Z,0.78
2023-03-27T01:02:10.524Z,0.69
2023-03-27T01:04:38.416Z,0.56
2023-03-27T01:07:06.821Z,0.36
2023-03-27T01:09:33.141Z,0.44
2023-03-27T01:12:13.016Z,0.43
2023-03-27T01:15:00.532Z,0.24
2023-03-27T01:17:54.383Z,0.21
2023-03-27T01:20:35.578Z,-0.07
2023-03-27T01:23:35.971Z,-0.03
2023-03-27T01:27:00.651Z,-0.20
2023-03-27T01:29:32.993Z,-0.24
2023-03-27T01:32:29.410Z,-0.01
2023-03-27T01:35:03.434Z,0.19
2023-03-27T01:37:54.549Z,-0.03
2023-03-27T01:40:29.716Z,-0.02
2023-03-27T01:43:12.487Z,-0.05
2023-03-27T01:45:54.474Z,-0.20
2023-03-27T01:48:34.162Z,-0.11
2023-03-27T01:51:17.877Z,-0.06
2023-03-27T01:53:56.732Z,-0.09
2023-03-27T01:56:28.913Z,-0.26
2023-03-27T01:59:02.394Z,-0.27
2023-03-27T02:01:34.404Z,-0.15
2023-03-27T02:04:03.294Z,-0.16
2023-03-27T02:06:34.045Z,-0.05
2023-03-27T02:09:09.220Z,0.02
2023-03-27T02:11:44.022Z,0.04
2023-03-27T02:14:17.226Z,0.15
2023-03-27T02:16:47.269Z,0.20
2023-03-27T02:19:21.393Z,-0.01
2023-03-27T02:21:47.772Z,-0.10
2023-03-27T02:24:17.022Z,-0.15
2023-03-27T02:26:43.576Z,-0.25
2023-03-27T02:29:41.919Z,-0.42
2023-03-27T02:32:20.193Z,-0.39
2023-03-27T02:35:12.085Z,-0.46
2023-03-27T02:37:52.941Z,-0.52
2023-03-27T02:40:45.885Z,-0.56
2023-03-27T02:43:31.165Z,-0.61
2023-03-27T02:46:14.304Z,-0.56
2023-03-27T02:48:45.669Z,-0.65
2023-03-27T02:51:25.518Z,-0.57
2023-03-27T02:54:04.881Z,-0.65
2023-03-27T02:56:36.274Z,-0.50
2023-03-27T02:59:07.478Z,-0.43
2023-03-27T03:01:34.847Z,-0.57
2023-03-27T03:04:19.723Z,-0.59
2023-03-27T03:06:46.437Z,-0.42
2023-03-27T03:09:12.806Z,-0.48
2023-03-27T03:11:45.311Z,-0.63
2023-03-27T03:14:12.856Z,-0.54
2023-03-27T03:16:39.212Z,-0.64
2023-03-27T03:19:05.607Z,-0.65
2023-03-27T03:21:32.026Z,-0.65
2023-03-27T03:23:59.105Z,-0.64
2023-03-27T03:26:26.044Z,-0.71
2023-03-27T03:29:01.393Z,-0.70
2023-03-27T03:31:28.977Z,-0.85
2023-03-27T03:33:55.460Z,-0.90
2023-03-27T03:36:21.759Z,-0.88
2023-03-27T03:38:48.134Z,-0.92
2023-03-27T03:41:14.474Z,-0.94
2023-03-27T03:43:40.760Z,-0.86
2023-03-27T03:46:07.155Z,-0.92
2023-03-27T03:48:33.473Z,-0.84
2023-03-27T03:50:59.776Z,-0.81
2023-03-27T03:53:26.070Z,-0.80
2023-03-27T03:55:52.583Z,-0.87
2023-03-27T03:58:19.077Z,-0.87
2023-03-27T04:00:45.386Z,-0.80
2023-03-27T04:03:11.789Z,-0.85
2023-03-27T04:05:38.261Z,-0.94
2023-03-27T04:08:07.450Z,-0.83
2023-03-27T04:10:35.847Z,-0.77
2023-03-27T04:13:02.209Z,-0.65
2023-03-27T04:15:28.576Z,-0.82
2023-03-27T04:17:55.046Z,-0.79
2023-03-27T04:20:21.457Z,-0.85
2023-03-27T04:22:48.975Z,-0.91
2023-03-27T04:25:16.879Z,-0.86
2023-03-27T04:27:44.178Z,-0.82
2023-03-27T04:30:11.666Z,-0.83
2023-03-27T04:32:38.323Z,-0.92
2023-03-27T04:35:04.835Z,-0.92
2023-03-27T04:37:31.212Z,-0.87
2023-03-27T04:39:57.506Z,-0.82
2023-03-27T04:42:23.937Z,-0.89
2023-03-27T04:44:50.755Z,-0.84
2023-03-27T04:47:17.203Z,-0.92
2023-03-27T04:49:43.494Z,-0.79
2023-03-27T04:52:09.936Z,-0.86
2023-03-27T04:54:36.240Z,-0.82
2023-03-27T04:57:02.595Z,-0.78
2023-03-27T04:59:30.106Z,-0.71
2023-03-27T05:01:56.409Z,-0.66
2023-03-27T05:04:22.756Z,-0.62
2023-03-27T05:06:49.052Z,-0.47
2023-03-27T05:09:15.365Z,-0.26
2023-03-27T05:11:41.649Z,0.01
2023-03-27T05:14:07.958Z,0.07
2023-03-27T05:16:34.274Z,0.20
2023-03-27T05:19:00.595Z,0.25
2023-03-27T05:21:26.906Z,0.35
2023-03-27T05:23:53.327Z,0.37
2023-03-27T05:26:19.640Z,0.28
2023-03-27T05:28:45.940Z,0.27
2023-03-27T05:31:12.307Z,0.20
2023-03-27T05:33:38.637Z,0.24
2023-03-27T05:36:05.413Z,0.24
2023-03-27T05:38:31.738Z,0.23
2023-03-27T05:40:58.235Z,0.11
2023-03-27T05:43:24.764Z,0.12
2023-03-27T05:45:51.081Z,0.07
2023-03-27T05:48:17.439Z,0.01
2023-03-27T05:50:43.740Z,0.08
2023-03-27T05:53:10.349Z,-0.07
2023-03-27T05:55:38.478Z,-0.03
2023-03-27T05:58:05.511Z,0.10
2023-03-27T06:00:32.042Z,0.04
2023-03-27T06:03:00.509Z,0.09
2023-03-27T06:05:27.434Z,0.08
2023-03-27T06:07:53.728Z,0.21
2023-03-27T06:10:20.287Z,0.25
2023-03-27T06:12:48.833Z,0.17
2023-03-27T06:15:15.778Z,0.16
2023-03-27T06:17:43.489Z,0.20
2023-03-27T06:20:11.683Z,0.30
2023-03-27T06:22:47.090Z,0.50
2023-03-27T06:25:14.745Z,0.64
2023-03-27T06:27:42.485Z,0.94
2023-03-27T06:30:09.499Z,1.25
2023-03-27T06:32:35.806Z,1.75
2023-03-27T06:35:02.543Z,1.88
2023-03-27T06:37:29.382Z,2.17
2023-03-27T06:39:55.690Z,2.48
2023-03-27T06:42:22.002Z,2.26
2023-03-27T06:44:48.319Z,2.69
2023-03-27T06:47:14.959Z,3.00
2023-03-27T06:49:41.344Z,2.66
2023-03-27T06:52:07.624Z,2.30
2023-03-27T06:54:33.927Z,2.28
2023-03-27T06:57:00.266Z,2.51
2023-03-27T06:59:26.632Z,2.65
2023-03-27T07:01:52.998Z,2.85
2023-03-27T07:04:19.317Z,3.20
2023-03-27T07:06:45.627Z,2.97
2023-03-27T07:09:11.921Z,2.59
2023-03-27T07:11:38.220Z,2.44
2023-03-27T07:14:04.512Z,2.36
2023-03-27T07:16:31.010Z,2.45
2023-03-27T07:18:59.431Z,2.59
2023-03-27T07:21:27.599Z,2.74
2023-03-27T07:23:53.908Z,2.78
2023-03-27T07:26:20.233Z,2.93
2023-03-27T07:28:46.676Z,3.08
2023-03-27T07:31:31.629Z,3.10
2023-03-27T07:34:00.411Z,3.17
2023-03-27T07:36:26.816Z,3.20
2023-03-27T07:38:53.108Z,3.22
2023-03-27T07:41:19.512Z,3.40
2023-03-27T07:43:45.817Z,3.44
2023-03-27T07:46:12.753Z,3.39
2023-03-27T07:48:39.154Z,3.69
2023-03-27T07:53:35.036Z,3.92
2023-03-27T07:56:01.362Z,3.69
2023-03-27T07:58:27.841Z,3.81
2023-03-27T08:00:54.268Z,4.03
2023-03-27T08:03:21.166Z,4.08
2023-03-27T08:05:59.242Z,4.15
2023-03-27T08:08:26.918Z,4.59
2023-03-27T08:10:57.580Z,4.83
2023-03-27T08:13:24.150Z,4.83
2023-03-27T08:15:50.464Z,4.60
2023-03-27T08:18:16.849Z,4.47
2023-03-27T08:20:43.160Z,4.36
2023-03-27T08:23:09.495Z,4.36
2023-03-27T08:25:35.816Z,4.58
2023-03-27T08:28:02.142Z,4.66
2023-03-27T08:30:29.008Z,4.29
2023-03-27T08:32:55.379Z,4.42
2023-03-27T08:35:21.745Z,4.53
2023-03-27T08:37:48.214Z,4.73
2023-03-27T08:40:24.626Z,4.26
2023-03-27T08:42:54.852Z,3.95
2023-03-27T08:45:32.114Z,3.42
2023-03-27T08:48:10.891Z,3.34
2023-03-27T08:50:51.706Z,3.61
2023-03-27T08:53:50.447Z,3.82
2023-03-27T08:56:18.402Z,3.99
2023-03-27T08:58:45.676Z,4.09
2023-03-27T09:01:20.785Z,4.25
2023-03-27T09:03:56.041Z,4.39
2023-03-27T09:06:35.059Z,4.66
2023-03-27T09:09:19.295Z,4.70
2023-03-27T09:12:22.269Z,5.14
2023-03-27T09:15:02.545Z,5.28
2023-03-27T09:17:34.656Z,5.10
2023-03-27T09:20:23.124Z,4.92
2023-03-27T09:23:13.639Z,4.84
2023-03-27T09:25:45.189Z,4.83
2023-03-27T09:28:20.484Z,5.32
2023-03-27T09:30:46.962Z,5.54
2023-03-27T09:33:13.317Z,5.37
2023-03-27T09:35:39.984Z,5.17
2023-03-27T09:38:23.424Z,5.18
2023-03-27T09:40:54.649Z,5.57
2023-03-27T09:43:26.274Z,5.94
2023-03-27T09:45:53.677Z,6.64
2023-03-27T09:48:38.068Z,6.64
2023-03-27T09:51:04.588Z,6.98
2023-03-27T09:53:31.052Z,6.71
2023-03-27T09:56:04.043Z,6.66
2023-03-27T09:58:36.010Z,6.95
2023-03-27T10:01:26.451Z,6.71
2023-03-27T10:03:56.185Z,6.22
2023-03-27T10:06:28.953Z,6.08
2023-03-27T10:08:58.341Z,5.55
2023-03-27T10:11:33.169Z,5.27
2023-03-27T10:14:00.857Z,5.24
2023-03-27T10:16:28.695Z,5.52
2023-03-27T10:18:58.394Z,5.79
2023-03-27T10:21:40.447Z,5.94
2023-03-27T10:24:26.170Z,6.15
2023-03-27T10:26:53.469Z,6.47
2023-03-27T10:29:27.168Z,7.05
2023-03-27T10:31:55.999Z,7.19
2023-03-27T10:34:37.769Z,7.82
2023-03-27T10:37:18.638Z,7.52
2023-03-27T10:39:45.394Z,6.83
2023-03-27T10:42:14.889Z,6.42
2023-03-27T10:44:43.617Z,6.52
2023-03-27T10:47:23.883Z,6.56
2023-03-27T10:50:15.292Z,6.96
2023-03-27T10:52:50.551Z,7.28
2023-03-27T10:55:24.593Z,6.54
2023-03-27T10:57:57.957Z,6.19
2023-03-27T11:00:35.666Z,5.98
2023-03-27T11:03:26.626Z,5.59
2023-03-27T11:05:53.677Z,5.30
2023-03-27T11:08:45.952Z,5.09
2023-03-27T11:11:26.175Z,3.76
2023-03-27T11:13:54.311Z,3.00
2023-03-27T11:16:26.912Z,2.73
2023-03-27T11:19:09.592Z,2.42
2023-03-27T11:21:46.789Z,2.23
2023-03-27T11:24:28.189Z,2.46
2023-03-27T11:27:12.288Z,2.99
2023-03-27T11:29:50.385Z,3.38
2023-03-27T11:32:28.838Z,3.73
2023-03-27T11:35:02.688Z,3.46
2023-03-27T11:37:42.485Z,4.21
2023-03-27T11:40:20.474Z,4.02
2023-03-27T11:42:47.568Z,3.91
2023-03-27T11:45:16.825Z,3.91
2023-03-27T11:47:48.959Z,3.83
2023-03-27T11:50:33.859Z,3.69
2023-03-27T11:53:12.087Z,3.84
2023-03-27T11:56:05.724Z,4.45
2023-03-27T11:58:44.688Z,5.09
2023-03-27T12:01:28.267Z,5.33
2023-03-27T12:04:09.933Z,5.99
2023-03-27T12:07:04.912Z,6.53
2023-03-27T12:09:47.761Z,6.54
2023-03-27T12:12:32.766Z,6.77
2023-03-27T12:15:14.475Z,6.85
2023-03-27T12:18:04.619Z,6.86
2023-03-27T12:21:01.438Z,7.33
2023-03-27T12:23:38.676Z,7.74
2023-03-27T12:26:17.237Z,8.18
2023-03-27T12:29:23.106Z,8.18
2023-03-27T12:32:18.525Z,7.39
2023-03-27T12:35:09.608Z,6.56
2023-03-27T12:37:46.849Z,4.42
2023-03-27T12:40:27.009Z,2.90
2023-03-27T12:43:02.881Z,2.50
2023-03-27T12:45:29.272Z,2.44
2023-03-27T12:48:10.588Z,2.68
2023-03-27T12:50:41.132Z,3.08
2023-03-27T12:53:18.869Z,3.45
2023-03-27T12:55:45.236Z,3.79
2023-03-27T12:58:28.482Z,4.37
2023-03-27T13:00:57.928Z,5.05
2023-03-27T13:03:43.732Z,5.65
2023-03-27T13:06:29.452Z,5.95
2023-03-27T13:09:15.670Z,5.86
2023-03-27T13:12:07.601Z,5.87
2023-03-27T13:14:47.919Z,5.15
2023-03-27T13:17:41.927Z,4.98
2023-03-27T13:20:15.955Z,4.96
2023-03-27T13:22:56.161Z,5.47
2023-03-27T13:25:39.659Z,5.84
2023-03-27T13:28:35.927Z,5.68
2023-03-27T13:31:04.570Z,5.92
2023-03-27T13:33:30.903Z,6.54
2023-03-27T13:35:57.343Z,6.92
2023-03-27T13:38:52.029Z,6.49
2023-03-27T13:41:43.221Z,6.75
2023-03-27T13:44:27.693Z,6.91
2023-03-27T13:47:06.085Z,6.61
2023-03-27T13:49:57.942Z,6.73
2023-03-27T13:52:33.231Z,7.66
2023-03-27T13:55:55.845Z,7.48
2023-03-27T13:58:41.173Z,7.70
2023-03-27T14:01:11.892Z,7.38
2023-03-27T14:03:56.755Z,6.80
2023-03-27T14:07:04.645Z,6.59
2023-03-27T14:09:53.727Z,6.02
2023-03-27T14:12:25.219Z,6.03
2023-03-27T14:15:16.291Z,6.30
2023-03-27T14:18:05.973Z,6.50
2023-03-27T14:20:43.811Z,6.56
2023-03-27T14:23:16.336Z,6.69
2023-03-27T14:25:48.663Z,6.83
2023-03-27T14:28:52.022Z,6.73
2023-03-27T14:31:20.580Z,6.50
2023-03-27T14:34:10.241Z,5.96
2023-03-27T14:36:37.127Z,5.49
2023-03-27T14:39:15.603Z,5.07
2023-03-27T14:41:56.022Z,4.89
2023-03-27T14:44:24.193Z,5.36
2023-03-27T14:47:00.741Z,5.83
2023-03-27T14:49:34.273Z,6.06
2023-03-27T14:52:02.695Z,6.21
2023-03-27T14:54:29.112Z,5.93
2023-03-27T14:56:59.063Z,5.83
2023-03-27T14:59:35.474Z,5.56
2023-03-27T15:02:12.253Z,5.13
2023-03-27T15:04:39.696Z,4.99
2023-03-27T15:07:20.698Z,5.18
2023-03-27T15:10:01.100Z,5.18
2023-03-27T15:12:27.412Z,5.18
2023-03-27T15:14:53.731Z,5.45
2023-03-27T15:17:20.148Z,5.65
2023-03-27T15:19:50.967Z,5.64
2023-03-27T15:22:31.240Z,5.89
2023-03-27T15:24:57.503Z,6.00
2023-03-27T15:27:30.433Z,5.84
2023-03-27T15:30:01.009Z,5.55
2023-03-27T15:32:35.304Z,5.50
2023-03-27T15:35:03.078Z,5.62
2023-03-27T15:37:30.189Z,5.41
2023-03-27T15:40:11.708Z,5.20
2023-03-27T15:42:53.519Z,4.61
2023-03-27T15:45:33.656Z,3.35
2023-03-27T15:48:02.111Z,2.85
2023-03-27T15:50:28.722Z,3.02
2023-03-27T15:52:56.407Z,3.38
2023-03-27T15:55:39.520Z,3.48
2023-03-27T15:58:41.351Z,3.29
2023-03-27T16:01:18.762Z,3.16
2023-03-27T16:03:46.725Z,3.15
2023-03-27T16:06:22.178Z,3.26
2023-03-27T16:08:48.920Z,3.52
2023-03-27T16:11:37.104Z,3.69
2023-03-27T16:14:03.435Z,3.91
2023-03-27T16:16:32.880Z,4.16
2023-03-27T16:19:02.923Z,4.09
2023-03-27T16:21:33.787Z,4.24
2023-03-27T16:24:00.150Z,4.28
2023-03-27T16:26:28.622Z,4.40
2023-03-27T16:28:57.520Z,4.50
2023-03-27T16:31:24.044Z,4.58
2023-03-27T16:33:50.467Z,4.67
2023-03-27T16:36:19.889Z,4.86
2023-03-27T16:38:46.926Z,4.82
2023-03-27T16:41:15.319Z,4.73
2023-03-27T16:43:42.450Z,4.70
2023-03-27T16:46:23.961Z,4.58
2023-03-27T16:48:51.547Z,4.53
2023-03-27T16:51:19.677Z,4.58
2023-03-27T16:53:46.241Z,4.65
2023-03-27T16:56:12.741Z,4.49
2023-03-27T16:58:39.800Z,4.38
2023-03-27T17:01:08.342Z,4.36
2023-03-27T17:03:34.740Z,4.23
2023-03-27T17:06:02.560Z,4.28
2023-03-27T17:08:29.124Z,4.23
2023-03-27T17:10:56.244Z,4.25
2023-03-27T17:13:22.981Z,4.23
2023-03-27T17:15:50.146Z,4.11
2023-03-27T17:18:20.210Z,4.10
2023-03-27T17:20:46.518Z,3.98
2023-03-27T17:23:12.877Z,4.02
2023-03-27T17:25:39.177Z,3.98
2023-03-27T17:28:05.485Z,3.90
2023-03-27T17:30:40.872Z,3.78
2023-03-27T17:33:10.325Z,3.71
2023-03-27T17:35:41.405Z,3.65
2023-03-27T17:38:08.893Z,3.66
2023-03-27T17:40:39.274Z,3.54
2023-03-27T17:43:05.853Z,3.57
2023-03-27T17:45:32.171Z,3.57
2023-03-27T17:47:58.548Z,3.26
2023-03-27T17:50:24.911Z,3.26
2023-03-27T17:52:51.199Z,3.34
2023-03-27T17:55:17.606Z,3.24
2023-03-27T17:57:43.890Z,3.09
2023-03-27T18:00:10.808Z,3.06
2023-03-27T18:02:37.394Z,3.02
2023-03-27T18:05:04.024Z,2.93
2023-03-27T18:07:31.189Z,2.86
2023-03-27T18:09:58.241Z,2.87
2023-03-27T18:12:24.580Z,2.79
2023-03-27T18:14:50.972Z,2.86
2023-03-27T18:17:17.436Z,2.79
2023-03-27T18:19:43.813Z,2.64
2023-03-27T18:22:10.126Z,2.44
2023-03-27T18:24:36.428Z,2.53
2023-03-27T18:27:02.798Z,2.65
2023-03-27T18:29:29.082Z,2.58
2023-03-27T18:31:55.477Z,2.51
2023-03-27T18:34:21.784Z,2.64
2023-03-27T18:36:48.182Z,2.59
2023-03-27T18:39:14.507Z,2.60
2023-03-27T18:41:40.823Z,2.57
2023-03-27T18:44:07.171Z,2.50
2023-03-27T18:46:33.532Z,2.48
2023-03-27T18:49:07.326Z,2.38
2023-03-27T18:51:40.192Z,2.45
2023-03-27T18:54:06.479Z,2.37
2023-03-27T18:56:32.833Z,2.35
2023-03-27T18:58:59.200Z,2.35
2023-03-27T19:01:25.591Z,2.21
2023-03-27T19:03:51.986Z,2.26
2023-03-27T19:06:18.360Z,2.25
2023-03-27T19:08:44.727Z,2.23
2023-03-27T19:11:11.468Z,2.18
2023-03-27T19:13:37.809Z,2.11
2023-03-27T19:16:13.986Z,2.14
2023-03-27T19:18:40.850Z,2.18
2023-03-27T19:21:07.220Z,2.14
2023-03-27T19:23:33.489Z,2.21
2023-03-27T19:26:08.054Z,2.20
2023-03-27T19:28:34.493Z,2.49
2023-03-27T19:31:06.060Z,2.21
2023-03-27T19:33:32.425Z,2.35
2023-03-27T19:35:58.765Z,2.30
2023-03-27T19:38:25.056Z,2.15
2023-03-27T19:40:51.326Z,2.04
2023-03-27T19:43:17.620Z,2.16
2023-03-27T19:45:58.427Z,2.06
2023-03-27T19:48:31.012Z,2.07
2023-03-27T19:50:58.717Z,2.05
2023-03-27T19:53:25.418Z,1.88
2023-03-27T19:55:51.727Z,1.82
2023-03-27T19:58:18.036Z,1.80
2023-03-27T20:00:44.430Z,1.86
2023-03-27T20:03:10.938Z,1.77
2023-03-27T20:05:38.943Z,1.75
2023-03-27T20:08:05.782Z,1.63
2023-03-27T20:10:32.089Z,1.68
2023-03-27T20:12:58.420Z,1.70
2023-03-27T20:15:24.766Z,1.65
2023-03-27T20:17:51.143Z,1.51
2023-03-27T20:20:17.596Z,1.47
2023-03-27T20:22:56.528Z,1.49
2023-03-27T20:25:24.405Z,1.47
2023-03-27T20:27:50.720Z,1.53
2023-03-27T20:30:17.129Z,1.56
2023-03-27T20:32:43.511Z,1.67
2023-03-27T20:35:20.658Z,1.75
2023-03-27T20:37:50.963Z,1.63
2023-03-27T20:40:17.734Z,1.62
2023-03-27T20:42:44.275Z,1.57
2023-03-27T20:45:10.598Z,1.50
2023-03-27T20:47:36.971Z,1.56
2023-03-27T20:50:03.499Z,1.67
2023-03-27T20:52:29.866Z,1.75
2023-03-27T20:54:56.195Z,1.63
2023-03-27T20:57:22.721Z,1.69
2023-03-27T20:59:49.212Z,1.86
2023-03-27T21:02:17.893Z,1.93
2023-03-27T21:04:44.301Z,1.86
2023-03-27T21:07:10.601Z,1.71
2023-03-27T21:09:39.995Z,1.72
2023-03-27T21:12:06.937Z,1.85
2023-03-27T21:14:33.292Z,1.80
2023-03-27T21:16:59.814Z,1.61
2023-03-27T21:19:26.267Z,1.56
2023-03-27T21:21:52.615Z,1.63
2023-03-27T21:24:19.086Z,1.60
2023-03-27T21:26:45.537Z,1.49
2023-03-27T21:29:12.269Z,1.45
2023-03-27T21:31:39.624Z,1.45
2023-03-27T21:34:06.424Z,1.42
2023-03-27T21:36:33.268Z,1.34
2023-03-27T21:38:59.884Z,1.32
2023-03-27T21:41:26.876Z,1.34
2023-03-27T21:43:53.202Z,1.35
2023-03-27T21:46:19.600Z,1.46
2023-03-27T21:48:49.724Z,1.62
2023-03-27T21:51:16.072Z,1.62
2023-03-27T21:53:42.492Z,1.71
2023-03-27T21:56:09.355Z,1.63
2023-03-27T21:58:35.704Z,1.61
2023-03-27T22:01:02.333Z,1.66
2023-03-27T22:03:28.965Z,1.73
2023-03-27T22:06:10.309Z,1.79
2023-03-27T22:08:39.021Z,1.82
2023-03-27T22:11:05.726Z,1.70
2023-03-27T22:13:33.775Z,1.61
2023-03-27T22:16:00.440Z,1.58
2023-03-27T22:18:26.963Z,1.61
2023-03-27T22:20:53.281Z,1.59
2023-03-27T22:23:19.605Z,1.62
2023-03-27T22:25:55.257Z,1.60
2023-03-27T22:28:21.631Z,1.35
2023-03-27T22:30:48.052Z,1.48
2023-03-27T22:33:14.386Z,1.53
2023-03-27T22:35:47.840Z,1.53
2023-03-27T22:38:14.717Z,1.53
2023-03-27T22:40:41.019Z,1.61
2023-03-27T22:43:07.379Z,1.47
2023-03-27T22:45:35.490Z,1.62
2023-03-27T22:48:01.840Z,1.59
2023-03-27T22:50:28.185Z,1.68
2023-03-27T22:52:54.498Z,1.64
2023-03-27T22:55:20.798Z,1.66
2023-03-27T22:57:47.099Z,1.49
2023-03-27T23:00:14.054Z,1.50
2023-03-27T23:02:40.417Z,1.61
2023-03-27T23:05:07.042Z,1.56
2023-03-27T23:07:33.430Z,1.68
2023-03-27T23:09:59.782Z,1.76
2023-03-27T23:12:26.083Z,1.90
2023-03-27T23:14:52.384Z,1.90
2023-03-27T23:17:18.775Z,1.91
2023-03-27T23:19:45.192Z,1.92
2023-03-27T23:22:11.500Z,1.80
2023-03-27T23:24:37.816Z,1.86
2023-03-27T23:27:04.180Z,1.79
2023-03-27T23:29:31.306Z,1.73
2023-03-27T23:31:57.769Z,1.65
2023-03-27T23:34:24.235Z,1.56
2023-03-27T23:36:50.666Z,1.38
2023-03-27T23:39:17.000Z,1.47
2023-03-27T23:41:43.327Z,1.45
2023-03-27T23:44:09.787Z,1.43
2023-03-27T23:46:36.120Z,1.43
2023-03-27T23:49:02.472Z,1.51
2023-03-27T23:51:28.775Z,1.23
2023-03-27T23:53:55.079Z,1.47
2023-03-27T23:56:21.393Z,1.52
2023-03-27T23:58:47.722Z,1.57
